sensor_id;sensor_type;location;lat;lon;timestamp;pressure;altitude;pressure_sealevel;temperature;humidity
54308;BME280;40208;39.778;2.710;2023-01-25T00:01:06;102051.56;;;8.16;100.00
54308;BME280;40208;39.778;2.710;2023-01-25T00:03:51;102043.59;;;8.19;100.00
54308;BME280;40208;39.778;2.710;2023-01-25T00:06:37;102030.41;;;8.16;100.00
54308;BME280;40208;39.778;2.710;2023-01-25T00:09:22;102024.03;;;8.31;100.00
54308;BME280;40208;39.778;2.710;2023-01-25T00:12:06;102035.50;;;8.28;100.00
54308;BME280;40208;39.778;2.710;2023-01-25T00:14:51;102024.13;;;8.23;100.00
54308;BME280;40208;39.778;2.710;2023-01-25T00:17:36;102021.44;;;8.26;100.00
54308;BME280;40208;39.778;2.710;2023-01-25T00:20:20;102010.59;;;8.44;100.00
54308;BME280;40208;39.778;2.710;2023-01-25T00:23:05;102021.88;;;8.56;100.00
54308;BME280;40208;39.778;2.710;2023-01-25T00:25:56;102018.44;;;8.51;100.00
54308;BME280;40208;39.778;2.710;2023-01-25T00:28:41;102012.22;;;8.53;100.00
54308;BME280;40208;39.778;2.710;2023-01-25T00:31:31;102029.81;;;8.54;100.00
54308;BME280;40208;39.778;2.710;2023-01-25T00:37:22;102013.56;;;8.77;100.00
54308;BME280;40208;39.778;2.710;2023-01-25T00:40:08;102016.34;;;8.71;100.00
54308;BME280;40208;39.778;2.710;2023-01-25T00:42:54;102019.00;;;8.68;100.00
54308;BME280;40208;39.778;2.710;2023-01-25T00:45:38;102006.69;;;8.67;100.00
54308;BME280;40208;39.778;2.710;2023-01-25T00:48:23;102011.97;;;8.67;100.00
54308;BME280;40208;39.778;2.710;2023-01-25T00:51:08;102003.09;;;8.71;100.00
54308;BME280;40208;39.778;2.710;2023-01-25T00:53:53;102017.91;;;8.80;100.00
54308;BME280;40208;39.778;2.710;2023-01-25T00:56:38;102023.13;;;8.84;100.00
54308;BME280;40208;39.778;2.710;2023-01-25T00:59:23;102019.75;;;8.76;100.00
54308;BME280;40208;39.778;2.710;2023-01-25T01:02:07;102019.53;;;8.88;100.00
54308;BME280;40208;39.778;2.710;2023-01-25T01:04:52;102018.63;;;8.89;100.00
54308;BME280;40208;39.778;2.710;2023-01-25T01:07:39;102020.47;;;8.87;100.00
54308;BME280;40208;39.778;2.710;2023-01-25T01:10:24;102024.84;;;8.88;100.00
54308;BME280;40208;39.778;2.710;2023-01-25T01:13:08;102038.84;;;8.95;100.00
54308;BME280;40208;39.778;2.710;2023-01-25T01:15:54;102012.31;;;8.97;100.00
54308;BME280;40208;39.778;2.710;2023-01-25T01:18:39;102021.19;;;8.96;100.00
54308;BME280;40208;39.778;2.710;2023-01-25T01:21:24;102001.84;;;8.90;100.00
54308;BME280;40208;39.778;2.710;2023-01-25T01:24:09;102005.19;;;9.02;100.00
54308;BME280;40208;39.778;2.710;2023-01-25T01:26:54;101999.22;;;8.90;100.00
54308;BME280;40208;39.778;2.710;2023-01-25T01:29:38;102007.16;;;8.90;100.00
54308;BME280;40208;39.778;2.710;2023-01-25T01:32:23;102034.25;;;9.03;100.00
54308;BME280;40208;39.778;2.710;2023-01-25T01:35:08;102018.03;;;9.20;100.00
54308;BME280;40208;39.778;2.710;2023-01-25T01:37:53;102002.13;;;9.22;100.00
54308;BME280;40208;39.778;2.710;2023-01-25T01:40:42;102026.00;;;9.20;100.00
54308;BME280;40208;39.778;2.710;2023-01-25T01:43:27;102011.03;;;9.19;100.00
54308;BME280;40208;39.778;2.710;2023-01-25T01:46:27;101992.34;;;9.25;100.00
54308;BME280;40208;39.778;2.710;2023-01-25T01:49:16;101999.41;;;9.25;100.00
54308;BME280;40208;39.778;2.710;2023-01-25T01:52:04;102003.66;;;9.35;100.00
54308;BME280;40208;39.778;2.710;2023-01-25T01:54:58;102013.16;;;9.44;100.00
54308;BME280;40208;39.778;2.710;2023-01-25T01:57:47;102008.72;;;9.46;100.00
54308;BME280;40208;39.778;2.710;2023-01-25T02:00:34;102010.50;;;9.45;100.00
54308;BME280;40208;39.778;2.710;2023-01-25T02:03:21;101989.56;;;9.31;100.00
54308;BME280;40208;39.778;2.710;2023-01-25T02:06:12;102010.00;;;9.25;100.00
54308;BME280;40208;39.778;2.710;2023-01-25T02:08:57;102026.00;;;9.20;100.00
54308;BME280;40208;39.778;2.710;2023-01-25T02:11:44;102020.50;;;9.29;100.00
54308;BME280;40208;39.778;2.710;2023-01-25T02:14:28;102009.03;;;9.30;100.00
54308;BME280;40208;39.778;2.710;2023-01-25T02:17:14;102008.97;;;9.32;100.00
54308;BME280;40208;39.778;2.710;2023-01-25T02:20:04;102006.50;;;9.24;100.00
54308;BME280;40208;39.778;2.710;2023-01-25T02:22:53;102011.88;;;9.21;100.00
54308;BME280;40208;39.778;2.710;2023-01-25T02:25:40;102002.91;;;9.27;100.00
54308;BME280;40208;39.778;2.710;2023-01-25T02:28:32;102008.34;;;9.21;100.00
54308;BME280;40208;39.778;2.710;2023-01-25T02:31:18;101999.47;;;9.23;100.00
54308;BME280;40208;39.778;2.710;2023-01-25T02:34:02;102003.06;;;9.21;100.00
54308;BME280;40208;39.778;2.710;2023-01-25T02:36:47;102004.97;;;9.11;100.00
54308;BME280;40208;39.778;2.710;2023-01-25T02:39:32;102000.69;;;9.05;100.00
54308;BME280;40208;39.778;2.710;2023-01-25T02:42:16;102005.97;;;9.07;100.00
54308;BME280;40208;39.778;2.710;2023-01-25T02:45:01;101996.31;;;9.04;100.00
54308;BME280;40208;39.778;2.710;2023-01-25T02:47:46;101996.00;;;9.18;100.00
54308;BME280;40208;39.778;2.710;2023-01-25T02:50:31;101993.47;;;9.13;100.00
54308;BME280;40208;39.778;2.710;2023-01-25T02:53:16;101998.63;;;9.20;100.00
54308;BME280;40208;39.778;2.710;2023-01-25T02:56:01;101981.75;;;9.25;100.00
54308;BME280;40208;39.778;2.710;2023-01-25T02:58:45;101977.16;;;9.35;100.00
54308;BME280;40208;39.778;2.710;2023-01-25T03:01:33;101971.88;;;9.33;100.00
54308;BME280;40208;39.778;2.710;2023-01-25T03:04:18;101965.53;;;9.41;100.00
54308;BME280;40208;39.778;2.710;2023-01-25T03:07:03;101962.78;;;9.47;100.00
54308;BME280;40208;39.778;2.710;2023-01-25T03:09:48;101954.09;;;9.39;100.00
54308;BME280;40208;39.778;2.710;2023-01-25T03:12:33;101947.06;;;9.38;100.00
54308;BME280;40208;39.778;2.710;2023-01-25T03:15:17;101936.47;;;9.38;100.00
54308;BME280;40208;39.778;2.710;2023-01-25T03:18:02;101949.84;;;9.30;100.00
54308;BME280;40208;39.778;2.710;2023-01-25T03:20:47;101949.84;;;9.30;100.00
54308;BME280;40208;39.778;2.710;2023-01-25T03:23:31;101947.34;;;9.24;100.00
54308;BME280;40208;39.778;2.710;2023-01-25T03:26:17;101956.16;;;9.24;100.00
54308;BME280;40208;39.778;2.710;2023-01-25T03:29:02;101950.97;;;9.18;100.00
54308;BME280;40208;39.778;2.710;2023-01-25T03:31:46;101950.97;;;9.18;100.00
54308;BME280;40208;39.778;2.710;2023-01-25T03:34:31;101959.84;;;9.17;100.00
54308;BME280;40208;39.778;2.710;2023-01-25T03:37:16;101965.75;;;9.30;100.00
54308;BME280;40208;39.778;2.710;2023-01-25T03:40:00;101956.81;;;9.36;100.00
54308;BME280;40208;39.778;2.710;2023-01-25T03:42:45;101961.25;;;9.35;100.00
54308;BME280;40208;39.778;2.710;2023-01-25T03:45:30;101952.38;;;9.38;100.00
54308;BME280;40208;39.778;2.710;2023-01-25T03:48:14;101945.50;;;9.27;100.00
54308;BME280;40208;39.778;2.710;2023-01-25T03:50:59;101937.59;;;9.26;100.00
54308;BME280;40208;39.778;2.710;2023-01-25T03:53:44;101935.94;;;9.20;100.00
54308;BME280;40208;39.778;2.710;2023-01-25T03:56:28;101929.97;;;9.10;100.00
54308;BME280;40208;39.778;2.710;2023-01-25T03:59:12;101940.72;;;9.01;100.00
54308;BME280;40208;39.778;2.710;2023-01-25T04:01:57;101944.41;;;8.94;100.00
54308;BME280;40208;39.778;2.710;2023-01-25T04:04:42;101951.66;;;8.86;100.00
54308;BME280;40208;39.778;2.710;2023-01-25T04:07:26;101953.59;;;8.76;100.00
54308;BME280;40208;39.778;2.710;2023-01-25T04:10:11;101955.53;;;8.66;100.00
54308;BME280;40208;39.778;2.710;2023-01-25T04:12:56;101952.16;;;8.58;100.00
54308;BME280;40208;39.778;2.710;2023-01-25T04:15:40;101947.84;;;8.53;100.00
54308;BME280;40208;39.778;2.710;2023-01-25T04:18:25;101940.88;;;8.47;100.00
54308;BME280;40208;39.778;2.710;2023-01-25T04:21:09;101933.09;;;8.36;100.00
54308;BME280;40208;39.778;2.710;2023-01-25T04:23:54;101928.75;;;8.32;100.00
54308;BME280;40208;39.778;2.710;2023-01-25T04:26:39;101927.19;;;8.22;100.00
54308;BME280;40208;39.778;2.710;2023-01-25T04:29:23;101935.19;;;8.19;100.00
54308;BME280;40208;39.778;2.710;2023-01-25T04:32:08;101940.50;;;8.16;100.00
54308;BME280;40208;39.778;2.710;2023-01-25T04:34:52;101945.78;;;8.16;100.00
54308;BME280;40208;39.778;2.710;2023-01-25T04:37:37;101937.13;;;8.07;100.00
54308;BME280;40208;39.778;2.710;2023-01-25T04:40:21;101944.25;;;8.02;100.00
54308;BME280;40208;39.778;2.710;2023-01-25T04:43:06;101956.69;;;7.94;100.00
54308;BME280;40208;39.778;2.710;2023-01-25T04:45:51;101952.41;;;7.87;100.00
54308;BME280;40208;39.778;2.710;2023-01-25T04:48:35;101956.81;;;7.86;100.00
54308;BME280;40208;39.778;2.710;2023-01-25T04:51:20;101956.03;;;7.81;100.00
54308;BME280;40208;39.778;2.710;2023-01-25T04:54:04;101947.25;;;7.78;100.00
54308;BME280;40208;39.778;2.710;2023-01-25T04:56:49;101936.66;;;7.79;100.00
54308;BME280;40208;39.778;2.710;2023-01-25T04:59:34;101942.88;;;7.78;100.00
54308;BME280;40208;39.778;2.710;2023-01-25T05:02:18;101955.19;;;7.78;100.00
54308;BME280;40208;39.778;2.710;2023-01-25T05:05:03;101954.31;;;7.79;100.00
54308;BME280;40208;39.778;2.710;2023-01-25T05:07:48;101963.09;;;7.81;100.00
54308;BME280;40208;39.778;2.710;2023-01-25T05:10:32;101957.81;;;7.78;100.00
54308;BME280;40208;39.778;2.710;2023-01-25T05:13:17;101959.59;;;7.79;100.00
54308;BME280;40208;39.778;2.710;2023-01-25T05:16:01;101950.88;;;7.71;100.00
54308;BME280;40208;39.778;2.710;2023-01-25T05:18:46;101963.28;;;7.67;100.00
54308;BME280;40208;39.778;2.710;2023-01-25T05:21:30;101968.56;;;7.65;100.00
54308;BME280;40208;39.778;2.710;2023-01-25T05:24:33;101858.47;;;7.07;100.00
54308;BME280;40208;39.778;2.710;2023-01-25T05:27:19;101961.50;;;7.68;100.00
54308;BME280;40208;39.778;2.710;2023-01-25T05:30:04;101947.22;;;7.81;100.00
54308;BME280;40208;39.778;2.710;2023-01-25T05:32:48;101943.63;;;7.85;100.00
54308;BME280;40208;39.778;2.710;2023-01-25T05:35:33;101955.91;;;7.89;100.00
54308;BME280;40208;39.778;2.710;2023-01-25T05:38:18;101955.91;;;7.88;100.00
54308;BME280;40208;39.778;2.710;2023-01-25T05:41:02;101957.75;;;7.84;100.00
54308;BME280;40208;39.778;2.710;2023-01-25T05:43:47;101970.16;;;7.79;100.00
54308;BME280;40208;39.778;2.710;2023-01-25T05:46:31;101974.47;;;7.86;100.00
54308;BME280;40208;39.778;2.710;2023-01-25T05:49:16;101978.84;;;7.87;100.00
54308;BME280;40208;39.778;2.710;2023-01-25T05:52:01;101987.69;;;7.86;100.00
54308;BME280;40208;39.778;2.710;2023-01-25T05:54:45;101991.31;;;7.79;100.00
54308;BME280;40208;39.778;2.710;2023-01-25T05:57:30;101992.16;;;7.79;100.00
54308;BME280;40208;39.778;2.710;2023-01-25T06:00:15;101986.09;;;7.73;100.00
54308;BME280;40208;39.778;2.710;2023-01-25T06:03:00;101993.09;;;7.77;100.00
54308;BME280;40208;39.778;2.710;2023-01-25T06:05:45;101979.06;;;7.72;100.00
54308;BME280;40208;39.778;2.710;2023-01-25T06:08:29;101980.75;;;7.76;100.00
54308;BME280;40208;39.778;2.710;2023-01-25T06:11:15;101977.22;;;7.77;100.00
54308;BME280;40208;39.778;2.710;2023-01-25T06:14:00;101975.56;;;7.71;100.00
54308;BME280;40208;39.778;2.710;2023-01-25T06:16:45;101975.47;;;7.77;100.00
54308;BME280;40208;39.778;2.710;2023-01-25T06:19:30;101976.31;;;7.78;100.00
54308;BME280;40208;39.778;2.710;2023-01-25T06:22:14;101950.75;;;7.80;100.00
54308;BME280;40208;39.778;2.710;2023-01-25T06:24:59;101948.22;;;7.74;100.00
54308;BME280;40208;39.778;2.710;2023-01-25T06:27:43;101962.22;;;7.79;100.00
54308;BME280;40208;39.778;2.710;2023-01-25T06:30:28;101955.03;;;7.90;100.00
54308;BME280;40208;39.778;2.710;2023-01-25T06:33:13;101969.09;;;7.91;100.00
54308;BME280;40208;39.778;2.710;2023-01-25T06:35:58;101949.56;;;8.01;100.00
54308;BME280;40208;39.778;2.710;2023-01-25T06:38:46;101954.56;;;8.19;100.00
54308;BME280;40208;39.778;2.710;2023-01-25T06:41:31;101960.50;;;8.32;100.00
54308;BME280;40208;39.778;2.710;2023-01-25T06:44:16;101957.91;;;8.29;100.00
54308;BME280;40208;39.778;2.710;2023-01-25T06:47:00;101966.63;;;8.36;100.00
54308;BME280;40208;39.778;2.710;2023-01-25T06:49:45;101969.09;;;8.46;100.00
54308;BME280;40208;39.778;2.710;2023-01-25T06:52:30;101967.25;;;8.52;100.00
54308;BME280;40208;39.778;2.710;2023-01-25T06:55:15;101956.47;;;8.64;100.00
54308;BME280;40208;39.778;2.710;2023-01-25T06:57:59;101964.28;;;8.70;100.00
54308;BME280;40208;39.778;2.710;2023-01-25T07:00:44;101962.53;;;8.69;100.00
54308;BME280;40208;39.778;2.710;2023-01-25T07:03:29;101979.13;;;8.79;100.00
54308;BME280;40208;39.778;2.710;2023-01-25T07:06:14;101970.94;;;8.93;100.00
54308;BME280;40208;39.778;2.710;2023-01-25T07:09:06;101962.22;;;8.87;100.00
54308;BME280;40208;39.778;2.710;2023-01-25T07:11:51;101986.75;;;8.96;100.00
54308;BME280;40208;39.778;2.710;2023-01-25T07:14:36;101986.78;;;8.94;100.00
54308;BME280;40208;39.778;2.710;2023-01-25T07:17:20;101995.53;;;8.98;100.00
54308;BME280;40208;39.778;2.710;2023-01-25T07:20:05;101983.75;;;9.14;100.00
54308;BME280;40208;39.778;2.710;2023-01-25T07:22:50;101990.69;;;9.20;100.00
54308;BME280;40208;39.778;2.710;2023-01-25T07:25:34;101982.75;;;9.20;100.00
54308;BME280;40208;39.778;2.710;2023-01-25T07:28:19;101992.22;;;9.31;100.00
54308;BME280;40208;39.778;2.710;2023-01-25T07:31:04;101984.44;;;9.24;100.00
54308;BME280;40208;39.778;2.710;2023-01-25T07:33:50;101990.63;;;9.23;100.00
54308;BME280;40208;39.778;2.710;2023-01-25T07:36:34;101998.72;;;9.15;100.00
54308;BME280;40208;39.778;2.710;2023-01-25T07:39:21;101996.00;;;9.18;100.00
54308;BME280;40208;39.778;2.710;2023-01-25T07:42:05;101990.78;;;9.15;100.00
54308;BME280;40208;39.778;2.710;2023-01-25T07:44:50;101995.97;;;9.21;100.00
54308;BME280;40208;39.778;2.710;2023-01-25T07:47:35;101993.19;;;9.27;100.00
54308;BME280;40208;39.778;2.710;2023-01-25T07:50:19;101997.34;;;9.39;100.00
54308;BME280;40208;39.778;2.710;2023-01-25T07:53:04;102003.47;;;9.43;100.00
54308;BME280;40208;39.778;2.710;2023-01-25T07:55:49;102001.97;;;9.31;100.00
54308;BME280;40208;39.778;2.710;2023-01-25T07:58:33;102014.38;;;9.27;100.00
54308;BME280;40208;39.778;2.710;2023-01-25T08:01:19;102008.00;;;9.38;100.00
54308;BME280;40208;39.778;2.710;2023-01-25T08:04:04;101999.59;;;9.59;100.00
54308;BME280;40208;39.778;2.710;2023-01-25T08:06:49;101985.59;;;9.52;100.00
54308;BME280;40208;39.778;2.710;2023-01-25T08:09:34;102008.63;;;9.49;100.00
54308;BME280;40208;39.778;2.710;2023-01-25T08:12:19;101999.56;;;9.61;100.00
54308;BME280;40208;39.778;2.710;2023-01-25T08:15:03;101989.00;;;9.59;100.00
54308;BME280;40208;39.778;2.710;2023-01-25T08:17:48;101995.00;;;9.67;100.00
54308;BME280;40208;39.778;2.710;2023-01-25T08:20:32;101966.69;;;9.69;100.00
54308;BME280;40208;39.778;2.710;2023-01-25T08:23:17;102000.38;;;9.64;100.00
54308;BME280;40208;39.778;2.710;2023-01-25T08:26:07;101992.34;;;9.67;100.00
54308;BME280;40208;39.778;2.710;2023-01-25T08:28:52;101980.94;;;9.64;100.00
54308;BME280;40208;39.778;2.710;2023-01-25T08:31:38;101988.09;;;9.60;100.00
54308;BME280;40208;39.778;2.710;2023-01-25T08:34:23;101984.47;;;9.64;100.00
54308;BME280;40208;39.778;2.710;2023-01-25T08:37:08;101987.13;;;9.64;100.00
54308;BME280;40208;39.778;2.710;2023-01-25T08:39:52;101978.53;;;9.53;100.00
54308;BME280;40208;39.778;2.710;2023-01-25T08:42:37;101993.66;;;9.46;100.00
54308;BME280;40208;39.778;2.710;2023-01-25T08:45:21;101977.97;;;9.37;100.00
54308;BME280;40208;39.778;2.710;2023-01-25T08:48:06;101992.16;;;9.34;100.00
54308;BME280;40208;39.778;2.710;2023-01-25T08:50:50;101990.34;;;9.37;100.00
54308;BME280;40208;39.778;2.710;2023-01-25T08:53:35;101983.44;;;9.29;100.00
54308;BME280;40208;39.778;2.710;2023-01-25T08:56:19;101999.41;;;9.26;100.00
54308;BME280;40208;39.778;2.710;2023-01-25T08:59:04;102001.19;;;9.26;100.00
54308;BME280;40208;39.778;2.710;2023-01-25T09:01:49;101990.31;;;9.38;100.00
54308;BME280;40208;39.778;2.710;2023-01-25T09:04:33;101982.19;;;9.47;100.00
54308;BME280;40208;39.778;2.710;2023-01-25T09:07:18;101985.00;;;9.40;100.00
54308;BME280;40208;39.778;2.710;2023-01-25T09:10:04;101985.78;;;9.43;100.00
54308;BME280;40208;39.778;2.710;2023-01-25T09:12:51;101987.41;;;9.50;100.00
54308;BME280;40208;39.778;2.710;2023-01-25T09:15:36;101992.41;;;9.64;100.00
54308;BME280;40208;39.778;2.710;2023-01-25T09:18:20;101994.91;;;9.70;100.00
54308;BME280;40208;39.778;2.710;2023-01-25T09:21:08;101991.19;;;9.79;100.00
54308;BME280;40208;39.778;2.710;2023-01-25T09:23:53;101992.16;;;9.75;100.00
54308;BME280;40208;39.778;2.710;2023-01-25T09:26:39;101996.69;;;9.71;100.00
54308;BME280;40208;39.778;2.710;2023-01-25T09:29:24;102003.72;;;9.72;100.00
54308;BME280;40208;39.778;2.710;2023-01-25T09:32:08;102006.88;;;9.90;100.00
54308;BME280;40208;39.778;2.710;2023-01-25T09:34:53;102013.91;;;9.91;100.00
54308;BME280;40208;39.778;2.710;2023-01-25T09:37:38;102012.28;;;9.85;100.00
54308;BME280;40208;39.778;2.710;2023-01-25T09:40:23;102022.94;;;9.82;100.00
54308;BME280;40208;39.778;2.710;2023-01-25T09:43:11;102018.47;;;9.84;100.00
54308;BME280;40208;39.778;2.710;2023-01-25T09:46:00;102021.22;;;9.80;100.00
54308;BME280;40208;39.778;2.710;2023-01-25T09:48:59;102032.78;;;9.77;100.00
54308;BME280;40208;39.778;2.710;2023-01-25T09:54:33;102039.97;;;9.72;100.00
54308;BME280;40208;39.778;2.710;2023-01-25T09:57:28;102030.09;;;9.80;100.00
54308;BME280;40208;39.778;2.710;2023-01-25T10:00:19;102022.06;;;9.82;100.00
54308;BME280;40208;39.778;2.710;2023-01-25T10:05:52;102032.41;;;9.94;100.00
54308;BME280;40208;39.778;2.710;2023-01-25T10:11:31;102029.66;;;9.98;100.00
54308;BME280;40208;39.778;2.710;2023-01-25T10:14:17;102031.31;;;10.04;100.00
54308;BME280;40208;39.778;2.710;2023-01-25T10:17:09;102029.50;;;10.06;100.00
54308;BME280;40208;39.778;2.710;2023-01-25T10:20:19;102028.28;;;10.19;100.00
54308;BME280;40208;39.778;2.710;2023-01-25T10:23:14;102024.97;;;10.11;100.00
54308;BME280;40208;39.778;2.710;2023-01-25T10:26:16;102023.03;;;10.18;100.00
54308;BME280;40208;39.778;2.710;2023-01-25T10:31:53;102026.44;;;10.23;100.00
54308;BME280;40208;39.778;2.710;2023-01-25T10:34:39;102020.19;;;10.26;100.00
54308;BME280;40208;39.778;2.710;2023-01-25T10:37:29;102022.97;;;10.19;100.00
54308;BME280;40208;39.778;2.710;2023-01-25T10:40:25;102021.28;;;10.17;100.00
54308;BME280;40208;39.778;2.710;2023-01-25T10:43:17;102017.03;;;10.10;100.00
54308;BME280;40208;39.778;2.710;2023-01-25T10:46:03;102024.88;;;10.14;100.00
54308;BME280;40208;39.778;2.710;2023-01-25T10:49:01;102020.41;;;10.16;100.00
54308;BME280;40208;39.778;2.710;2023-01-25T10:51:45;102030.81;;;10.26;100.00
54308;BME280;40208;39.778;2.710;2023-01-25T10:54:30;102018.31;;;10.31;100.00
54308;BME280;40208;39.778;2.710;2023-01-25T10:57:19;102021.81;;;10.33;100.00
54308;BME280;40208;39.778;2.710;2023-01-25T11:00:04;102014.63;;;10.38;100.00
54308;BME280;40208;39.778;2.710;2023-01-25T11:02:54;102038.59;;;10.33;100.00
54308;BME280;40208;39.778;2.710;2023-01-25T11:05:38;102034.16;;;10.34;100.00
54308;BME280;40208;39.778;2.710;2023-01-25T11:08:24;102033.31;;;10.32;100.00
54308;BME280;40208;39.778;2.710;2023-01-25T11:11:14;102026.75;;;10.48;100.00
54308;BME280;40208;39.778;2.710;2023-01-25T11:14:15;102028.81;;;10.37;100.00
54308;BME280;40208;39.778;2.710;2023-01-25T11:17:00;102031.41;;;10.38;100.00
54308;BME280;40208;39.778;2.710;2023-01-25T11:19:46;102012.81;;;10.40;100.00
54308;BME280;40208;39.778;2.710;2023-01-25T11:22:31;102014.47;;;10.44;100.00
54308;BME280;40208;39.778;2.710;2023-01-25T11:25:26;102029.59;;;10.40;100.00
54308;BME280;40208;39.778;2.710;2023-01-25T11:28:21;102006.88;;;10.29;100.00
54308;BME280;40208;39.778;2.710;2023-01-25T11:31:10;102014.53;;;10.41;100.00
54308;BME280;40208;39.778;2.710;2023-01-25T11:33:56;102004.94;;;10.35;100.00
54308;BME280;40208;39.778;2.710;2023-01-25T11:48:13;101993.16;;;10.47;100.00
54308;BME280;40208;39.778;2.710;2023-01-25T11:51:05;101986.03;;;10.49;100.00
54308;BME280;40208;39.778;2.710;2023-01-25T12:08:51;101955.66;;;10.61;100.00
54308;BME280;40208;39.778;2.710;2023-01-25T12:23:37;101943.00;;;10.36;100.00
54308;BME280;40208;39.778;2.710;2023-01-25T12:32:06;101924.38;;;10.38;100.00
54308;BME280;40208;39.778;2.710;2023-01-25T12:35:09;101930.72;;;10.32;100.00
54308;BME280;40208;39.778;2.710;2023-01-25T12:38:02;101919.47;;;10.21;100.00
54308;BME280;40208;39.778;2.710;2023-01-25T12:43:40;101908.56;;;10.35;100.00
54308;BME280;40208;39.778;2.710;2023-01-25T12:46:29;101899.53;;;10.42;100.00
54308;BME280;40208;39.778;2.710;2023-01-25T12:49:21;101897.88;;;10.36;100.00
54308;BME280;40208;39.778;2.710;2023-01-25T12:52:15;101882.69;;;10.42;100.00
54308;BME280;40208;39.778;2.710;2023-01-25T12:55:04;101896.19;;;10.34;100.00
54308;BME280;40208;39.778;2.710;2023-01-25T13:12:13;101871.59;;;10.26;100.00
54308;BME280;40208;39.778;2.710;2023-01-25T13:14:58;101861.78;;;10.31;100.00
54308;BME280;40208;39.778;2.710;2023-01-25T13:17:42;101865.16;;;10.36;100.00
54308;BME280;40208;39.778;2.710;2023-01-25T13:29:13;101863.94;;;10.49;100.00
54308;BME280;40208;39.778;2.710;2023-01-25T13:32:12;101862.53;;;10.34;100.00
54308;BME280;40208;39.778;2.710;2023-01-25T13:34:58;101852.50;;;10.47;100.00
54308;BME280;40208;39.778;2.710;2023-01-25T13:37:42;101854.56;;;10.36;100.00
54308;BME280;40208;39.778;2.710;2023-01-25T13:40:32;101850.38;;;10.26;100.00
54308;BME280;40208;39.778;2.710;2023-01-25T13:43:17;101844.34;;;10.21;100.00
54308;BME280;40208;39.778;2.710;2023-01-25T13:46:03;101848.72;;;10.22;100.00
54308;BME280;40208;39.778;2.710;2023-01-25T13:48:51;101839.81;;;10.24;100.00
54308;BME280;40208;39.778;2.710;2023-01-25T13:51:37;101849.47;;;10.28;100.00
54308;BME280;40208;39.778;2.710;2023-01-25T13:54:23;101846.72;;;10.31;100.00
54308;BME280;40208;39.778;2.710;2023-01-25T13:57:10;101857.34;;;10.31;100.00
54308;BME280;40208;39.778;2.710;2023-01-25T14:02:44;101850.09;;;10.38;100.00
54308;BME280;40208;39.778;2.710;2023-01-25T14:05:29;101849.94;;;10.44;100.00
54308;BME280;40208;39.778;2.710;2023-01-25T14:08:14;101847.41;;;10.39;100.00
54308;BME280;40208;39.778;2.710;2023-01-25T14:11:02;101848.34;;;10.37;100.00
54308;BME280;40208;39.778;2.710;2023-01-25T14:16:41;101850.31;;;10.30;100.00
54308;BME280;40208;39.778;2.710;2023-01-25T14:19:26;101852.00;;;10.33;100.00
54308;BME280;40208;39.778;2.710;2023-01-25T14:25:14;101846.50;;;10.39;100.00
54308;BME280;40208;39.778;2.710;2023-01-25T14:28:00;101856.34;;;10.35;100.00
54308;BME280;40208;39.778;2.710;2023-01-25T14:30:52;101845.72;;;10.35;100.00
54308;BME280;40208;39.778;2.710;2023-01-25T14:33:38;101856.88;;;10.48;100.00
54308;BME280;40208;39.778;2.710;2023-01-25T14:36:29;101858.66;;;10.48;100.00
54308;BME280;40208;39.778;2.710;2023-01-25T14:39:26;101856.00;;;10.48;100.00
54308;BME280;40208;39.778;2.710;2023-01-25T14:42:10;101857.13;;;10.39;100.00
54308;BME280;40208;39.778;2.710;2023-01-25T14:44:55;101865.91;;;10.41;100.00
54308;BME280;40208;39.778;2.710;2023-01-25T14:47:40;101868.78;;;10.33;100.00
54308;BME280;40208;39.778;2.710;2023-01-25T14:55:59;101877.25;;;10.48;100.00
54308;BME280;40208;39.778;2.710;2023-01-25T14:58:43;101870.56;;;10.33;100.00
54308;BME280;40208;39.778;2.710;2023-01-25T15:01:29;101867.13;;;10.28;100.00
54308;BME280;40208;39.778;2.710;2023-01-25T15:04:15;101875.03;;;10.31;100.00
54308;BME280;40208;39.778;2.710;2023-01-25T15:06:59;101875.13;;;10.26;100.00
54308;BME280;40208;39.778;2.710;2023-01-25T15:09:58;101881.28;;;10.30;100.00
54308;BME280;40208;39.778;2.710;2023-01-25T15:12:54;101878.66;;;10.27;100.00
54308;BME280;40208;39.778;2.710;2023-01-25T15:18:47;101876.91;;;10.26;100.00
54308;BME280;40208;39.778;2.710;2023-01-25T15:21:33;101880.53;;;10.23;100.00
54308;BME280;40208;39.778;2.710;2023-01-25T15:24:18;101877.88;;;10.23;100.00
54308;BME280;40208;39.778;2.710;2023-01-25T15:27:02;101875.28;;;10.20;100.00
54308;BME280;40208;39.778;2.710;2023-01-25T15:29:47;101869.00;;;10.23;100.00
54308;BME280;40208;39.778;2.710;2023-01-25T15:32:31;101865.50;;;10.22;100.00
54308;BME280;40208;39.778;2.710;2023-01-25T15:35:17;101871.75;;;10.19;100.00
54308;BME280;40208;39.778;2.710;2023-01-25T15:38:04;101877.06;;;10.19;100.00
54308;BME280;40208;39.778;2.710;2023-01-25T15:40:49;101874.50;;;10.16;100.00
54308;BME280;40208;39.778;2.710;2023-01-25T15:43:34;101877.16;;;10.16;100.00
54308;BME280;40208;39.778;2.710;2023-01-25T15:49:06;101875.53;;;10.11;100.00
54308;BME280;40208;39.778;2.710;2023-01-25T15:51:50;101873.44;;;10.24;100.00
54308;BME280;40208;39.778;2.710;2023-01-25T15:54:35;101874.38;;;10.21;100.00
54308;BME280;40208;39.778;2.710;2023-01-25T16:00:14;101861.88;;;10.25;100.00
54308;BME280;40208;39.778;2.710;2023-01-25T16:03:01;101876.22;;;10.17;100.00
54308;BME280;40208;39.778;2.710;2023-01-25T16:05:49;101873.75;;;10.11;100.00
54308;BME280;40208;39.778;2.710;2023-01-25T16:08:36;101873.75;;;10.11;100.00
54308;BME280;40208;39.778;2.710;2023-01-25T16:11:21;101865.63;;;10.17;100.00
54308;BME280;40208;39.778;2.710;2023-01-25T16:14:05;101858.66;;;10.13;100.00